sensor_id;sensor_type;location;lat;lon;timestamp;temperature;humidity
65478;SHT31;53678;39.642;22.430;2024-01-30T00:00:05;4.73;86.95
65478;SHT31;53678;39.642;22.430;2024-01-30T00:02:35;4.73;87.34
65478;SHT31;53678;39.642;22.430;2024-01-30T00:05:00;4.91;88.15
65478;SHT31;53678;39.642;22.430;2024-01-30T00:07:26;5.02;88.35
65478;SHT31;53678;39.642;22.430;2024-01-30T00:09:55;5.09;88.36
65478;SHT31;53678;39.642;22.430;2024-01-30T00:12:22;5.19;87.38
65478;SHT31;53678;39.642;22.430;2024-01-30T00:14:48;5.15;86.94
65478;SHT31;53678;39.642;22.430;2024-01-30T00:17:14;5.08;87.11
65478;SHT31;53678;39.642;22.430;2024-01-30T00:19:40;5.03;87.67
65478;SHT31;53678;39.642;22.430;2024-01-30T00:22:08;4.92;89.33
65478;SHT31;53678;39.642;22.430;2024-01-30T00:24:40;4.89;88.58
65478;SHT31;53678;39.642;22.430;2024-01-30T00:27:08;4.79;88.68
65478;SHT31;53678;39.642;22.430;2024-01-30T00:29:41;4.79;88.98
65478;SHT31;53678;39.642;22.430;2024-01-30T00:32:07;4.72;88.87
65478;SHT31;53678;39.642;22.430;2024-01-30T00:34:33;4.58;89.43
65478;SHT31;53678;39.642;22.430;2024-01-30T00:36:58;4.55;89.99
65478;SHT31;53678;39.642;22.430;2024-01-30T00:39:25;4.54;89.87
65478;SHT31;53678;39.642;22.430;2024-01-30T00:41:51;4.47;90.43
65478;SHT31;53678;39.642;22.430;2024-01-30T00:44:17;4.43;90.75
65478;SHT31;53678;39.642;22.430;2024-01-30T00:46:42;4.51;91.04
65478;SHT31;53678;39.642;22.430;2024-01-30T00:49:08;4.50;90.90
65478;SHT31;53678;39.642;22.430;2024-01-30T00:51:37;4.45;91.19
65478;SHT31;53678;39.642;22.430;2024-01-30T00:54:05;4.52;91.04
65478;SHT31;53678;39.642;22.430;2024-01-30T00:56:32;4.45;91.08
65478;SHT31;53678;39.642;22.430;2024-01-30T00:59:02;4.58;91.04
65478;SHT31;53678;39.642;22.430;2024-01-30T01:01:29;4.58;90.54
65478;SHT31;53678;39.642;22.430;2024-01-30T01:03:55;4.60;90.36
65478;SHT31;53678;39.642;22.430;2024-01-30T01:06:24;4.62;89.51
65478;SHT31;53678;39.642;22.430;2024-01-30T01:08:50;4.65;88.99
65478;SHT31;53678;39.642;22.430;2024-01-30T01:11:15;4.81;87.10
65478;SHT31;53678;39.642;22.430;2024-01-30T01:13:41;4.97;87.20
65478;SHT31;53678;39.642;22.430;2024-01-30T01:16:07;4.73;87.82
65478;SHT31;53678;39.642;22.430;2024-01-30T01:18:33;4.44;87.79
65478;SHT31;53678;39.642;22.430;2024-01-30T01:20:59;4.38;87.04
65478;SHT31;53678;39.642;22.430;2024-01-30T01:23:25;4.38;86.11
65478;SHT31;53678;39.642;22.430;2024-01-30T01:25:51;4.60;83.66
65478;SHT31;53678;39.642;22.430;2024-01-30T01:28:17;4.93;79.56
65478;SHT31;53678;39.642;22.430;2024-01-30T01:30:44;5.09;77.98
65478;SHT31;53678;39.642;22.430;2024-01-30T01:33:10;5.03;78.98
65478;SHT31;53678;39.642;22.430;2024-01-30T01:35:36;5.00;78.43
65478;SHT31;53678;39.642;22.430;2024-01-30T01:38:03;4.83;80.02
65478;SHT31;53678;39.642;22.430;2024-01-30T01:40:29;4.76;80.00
65478;SHT31;53678;39.642;22.430;2024-01-30T01:42:55;4.78;79.03
65478;SHT31;53678;39.642;22.430;2024-01-30T01:45:21;4.85;79.34
65478;SHT31;53678;39.642;22.430;2024-01-30T01:47:51;4.78;78.50
65478;SHT31;53678;39.642;22.430;2024-01-30T01:50:20;4.64;79.10
65478;SHT31;53678;39.642;22.430;2024-01-30T01:52:47;4.68;78.01
65478;SHT31;53678;39.642;22.430;2024-01-30T01:55:17;4.78;78.95
65478;SHT31;53678;39.642;22.430;2024-01-30T01:57:47;4.60;80.13
65478;SHT31;53678;39.642;22.430;2024-01-30T02:00:15;4.55;79.93
65478;SHT31;53678;39.642;22.430;2024-01-30T02:02:43;4.64;78.34
65478;SHT31;53678;39.642;22.430;2024-01-30T02:05:11;4.83;76.58
65478;SHT31;53678;39.642;22.430;2024-01-30T02:07:37;4.76;77.74
65478;SHT31;53678;39.642;22.430;2024-01-30T02:10:04;4.79;77.32
65478;SHT31;53678;39.642;22.430;2024-01-30T02:12:30;4.86;76.65
65478;SHT31;53678;39.642;22.430;2024-01-30T02:14:55;4.97;73.98
65478;SHT31;53678;39.642;22.430;2024-01-30T02:17:21;4.92;76.89
65478;SHT31;53678;39.642;22.430;2024-01-30T02:19:49;4.89;77.38
65478;SHT31;53678;39.642;22.430;2024-01-30T02:22:15;4.97;77.54
65478;SHT31;53678;39.642;22.430;2024-01-30T02:24:41;4.88;78.21
65478;SHT31;53678;39.642;22.430;2024-01-30T02:27:08;4.78;78.31
65478;SHT31;53678;39.642;22.430;2024-01-30T02:29:36;4.79;77.30
65478;SHT31;53678;39.642;22.430;2024-01-30T02:32:05;4.81;76.93
65478;SHT31;53678;39.642;22.430;2024-01-30T02:34:32;4.86;75.09
65478;SHT31;53678;39.642;22.430;2024-01-30T02:37:00;4.96;73.97
65478;SHT31;53678;39.642;22.430;2024-01-30T02:39:26;4.91;74.90
65478;SHT31;53678;39.642;22.430;2024-01-30T02:41:52;4.82;74.14
65478;SHT31;53678;39.642;22.430;2024-01-30T02:44:18;4.83;75.04
65478;SHT31;53678;39.642;22.430;2024-01-30T02:46:43;4.69;74.64
65478;SHT31;53678;39.642;22.430;2024-01-30T02:49:11;4.52;75.73
65478;SHT31;53678;39.642;22.430;2024-01-30T02:51:39;3.93;78.66
65478;SHT31;53678;39.642;22.430;2024-01-30T02:54:04;3.66;81.11
65478;SHT31;53678;39.642;22.430;2024-01-30T02:56:31;3.79;81.29
65478;SHT31;53678;39.642;22.430;2024-01-30T02:58:57;3.86;81.31
65478;SHT31;53678;39.642;22.430;2024-01-30T03:01:23;3.87;80.06
65478;SHT31;53678;39.642;22.430;2024-01-30T03:03:50;3.97;79.79
65478;SHT31;53678;39.642;22.430;2024-01-30T03:06:18;3.99;80.23
65478;SHT31;53678;39.642;22.430;2024-01-30T03:08:45;3.97;80.96
65478;SHT31;53678;39.642;22.430;2024-01-30T03:11:11;3.99;81.00
65478;SHT31;53678;39.642;22.430;2024-01-30T03:13:37;4.09;80.14
65478;SHT31;53678;39.642;22.430;2024-01-30T03:16:04;4.20;79.88
65478;SHT31;53678;39.642;22.430;2024-01-30T03:18:30;4.25;79.68
65478;SHT31;53678;39.642;22.430;2024-01-30T03:20:55;4.30;80.42
65478;SHT31;53678;39.642;22.430;2024-01-30T03:23:22;4.38;80.52
65478;SHT31;53678;39.642;22.430;2024-01-30T03:25:48;4.25;80.94
65478;SHT31;53678;39.642;22.430;2024-01-30T03:28:15;4.18;80.99
65478;SHT31;53678;39.642;22.430;2024-01-30T03:30:41;4.23;80.41
65478;SHT31;53678;39.642;22.430;2024-01-30T03:33:07;4.30;79.74
65478;SHT31;53678;39.642;22.430;2024-01-30T03:35:32;4.45;76.02
65478;SHT31;53678;39.642;22.430;2024-01-30T03:37:58;4.65;75.88
65478;SHT31;53678;39.642;22.430;2024-01-30T03:40:24;4.64;75.89
65478;SHT31;53678;39.642;22.430;2024-01-30T03:42:49;4.61;76.10
65478;SHT31;53678;39.642;22.430;2024-01-30T03:45:15;4.67;75.45
65478;SHT31;53678;39.642;22.430;2024-01-30T03:47:45;4.52;75.52
65478;SHT31;53678;39.642;22.430;2024-01-30T03:50:11;4.57;76.19
65478;SHT31;53678;39.642;22.430;2024-01-30T03:52:37;4.67;75.79
65478;SHT31;53678;39.642;22.430;2024-01-30T03:55:03;4.55;75.64
65478;SHT31;53678;39.642;22.430;2024-01-30T03:57:29;4.65;75.16
65478;SHT31;53678;39.642;22.430;2024-01-30T03:59:56;4.60;74.72
65478;SHT31;53678;39.642;22.430;2024-01-30T04:02:22;4.65;74.06
65478;SHT31;53678;39.642;22.430;2024-01-30T04:04:47;4.81;73.62
65478;SHT31;53678;39.642;22.430;2024-01-30T04:07:13;4.88;73.45
65478;SHT31;53678;39.642;22.430;2024-01-30T04:09:39;4.92;72.59
65478;SHT31;53678;39.642;22.430;2024-01-30T04:12:06;4.85;73.29
65478;SHT31;53678;39.642;22.430;2024-01-30T04:14:32;4.78;72.83
65478;SHT31;53678;39.642;22.430;2024-01-30T04:16:59;4.78;71.30
65478;SHT31;53678;39.642;22.430;2024-01-30T04:19:25;4.76;70.60
65478;SHT31;53678;39.642;22.430;2024-01-30T04:21:53;4.86;70.54
65478;SHT31;53678;39.642;22.430;2024-01-30T04:24:18;4.75;71.15
65478;SHT31;53678;39.642;22.430;2024-01-30T04:26:44;4.69;71.18
65478;SHT31;53678;39.642;22.430;2024-01-30T04:29:10;4.64;71.59
65478;SHT31;53678;39.642;22.430;2024-01-30T04:31:37;4.69;71.66
65478;SHT31;53678;39.642;22.430;2024-01-30T04:34:03;4.67;72.80
65478;SHT31;53678;39.642;22.430;2024-01-30T04:36:28;4.60;72.81
65478;SHT31;53678;39.642;22.430;2024-01-30T04:38:54;4.71;71.23
65478;SHT31;53678;39.642;22.430;2024-01-30T04:41:20;4.69;70.65
65478;SHT31;53678;39.642;22.430;2024-01-30T04:43:48;4.52;71.64
65478;SHT31;53678;39.642;22.430;2024-01-30T04:46:14;4.61;70.97
65478;SHT31;53678;39.642;22.430;2024-01-30T04:48:42;4.72;70.89
65478;SHT31;53678;39.642;22.430;2024-01-30T04:51:10;4.65;73.13
65478;SHT31;53678;39.642;22.430;2024-01-30T04:53:35;4.61;72.55
65478;SHT31;53678;39.642;22.430;2024-01-30T04:56:06;4.55;72.67
65478;SHT31;53678;39.642;22.430;2024-01-30T04:58:33;4.61;72.05
65478;SHT31;53678;39.642;22.430;2024-01-30T05:00:59;4.55;69.99
65478;SHT31;53678;39.642;22.430;2024-01-30T05:03:26;4.64;69.86
65478;SHT31;53678;39.642;22.430;2024-01-30T05:05:52;4.62;68.89
65478;SHT31;53678;39.642;22.430;2024-01-30T05:08:17;4.61;71.94
65478;SHT31;53678;39.642;22.430;2024-01-30T05:10:44;4.50;68.97
65478;SHT31;53678;39.642;22.430;2024-01-30T05:13:10;4.44;71.82
65478;SHT31;53678;39.642;22.430;2024-01-30T05:15:36;4.40;69.75
65478;SHT31;53678;39.642;22.430;2024-01-30T05:18:05;4.33;72.24
65478;SHT31;53678;39.642;22.430;2024-01-30T05:20:30;4.29;71.46
65478;SHT31;53678;39.642;22.430;2024-01-30T05:22:57;4.21;71.65
65478;SHT31;53678;39.642;22.430;2024-01-30T05:25:23;4.18;70.00
65478;SHT31;53678;39.642;22.430;2024-01-30T05:27:49;4.10;70.41
65478;SHT31;53678;39.642;22.430;2024-01-30T05:30:16;4.14;70.80
65478;SHT31;53678;39.642;22.430;2024-01-30T05:32:43;4.16;68.87
65478;SHT31;53678;39.642;22.430;2024-01-30T05:35:10;4.17;68.84
65478;SHT31;53678;39.642;22.430;2024-01-30T05:37:38;4.24;67.32
65478;SHT31;53678;39.642;22.430;2024-01-30T05:40:04;4.34;65.52
65478;SHT31;53678;39.642;22.430;2024-01-30T05:42:32;4.30;66.21
65478;SHT31;53678;39.642;22.430;2024-01-30T05:44:57;4.30;65.84
65478;SHT31;53678;39.642;22.430;2024-01-30T05:47:23;4.27;66.51
65478;SHT31;53678;39.642;22.430;2024-01-30T05:49:49;4.33;66.85
65478;SHT31;53678;39.642;22.430;2024-01-30T05:52:15;4.37;66.81
65478;SHT31;53678;39.642;22.430;2024-01-30T05:54:42;4.24;66.45
65478;SHT31;53678;39.642;22.430;2024-01-30T05:57:11;4.23;66.29
65478;SHT31;53678;39.642;22.430;2024-01-30T05:59:37;4.24;66.27
65478;SHT31;53678;39.642;22.430;2024-01-30T06:02:02;4.27;64.58
65478;SHT31;53678;39.642;22.430;2024-01-30T06:04:31;4.40;64.27
65478;SHT31;53678;39.642;22.430;2024-01-30T06:06:56;4.36;64.00
65478;SHT31;53678;39.642;22.430;2024-01-30T06:09:22;4.29;63.82
65478;SHT31;53678;39.642;22.430;2024-01-30T06:11:48;4.36;63.55
65478;SHT31;53678;39.642;22.430;2024-01-30T06:14:14;4.51;64.24
65478;SHT31;53678;39.642;22.430;2024-01-30T06:16:40;4.44;63.76
65478;SHT31;53678;39.642;22.430;2024-01-30T06:19:05;4.55;63.62
65478;SHT31;53678;39.642;22.430;2024-01-30T06:21:31;4.48;63.19
65478;SHT31;53678;39.642;22.430;2024-01-30T06:24:02;5.58;61.56
65478;SHT31;53678;39.642;22.430;2024-01-30T06:26:31;6.74;59.91
65478;SHT31;53678;39.642;22.430;2024-01-30T06:28:58;7.70;57.96
65478;SHT31;53678;39.642;22.430;2024-01-30T06:31:23;7.83;56.61
65478;SHT31;53678;39.642;22.430;2024-01-30T06:33:49;7.60;55.81
65478;SHT31;53678;39.642;22.430;2024-01-30T06:36:15;7.65;55.82
65478;SHT31;53678;39.642;22.430;2024-01-30T06:38:41;8.02;56.22
65478;SHT31;53678;39.642;22.430;2024-01-30T06:41:07;8.39;55.23
65478;SHT31;53678;39.642;22.430;2024-01-30T06:43:34;7.09;56.00
65478;SHT31;53678;39.642;22.430;2024-01-30T06:46:00;7.20;57.16
65478;SHT31;53678;39.642;22.430;2024-01-30T06:48:26;7.73;55.81
65478;SHT31;53678;39.642;22.430;2024-01-30T06:50:54;7.65;55.65
65478;SHT31;53678;39.642;22.430;2024-01-30T06:53:23;7.93;54.23
65478;SHT31;53678;39.642;22.430;2024-01-30T06:55:51;7.47;54.80
65478;SHT31;53678;39.642;22.430;2024-01-30T06:58:17;7.65;55.39
65478;SHT31;53678;39.642;22.430;2024-01-30T07:00:44;8.15;54.67
65478;SHT31;53678;39.642;22.430;2024-01-30T07:03:09;7.30;54.79
65478;SHT31;53678;39.642;22.430;2024-01-30T07:05:35;6.85;54.32
65478;SHT31;53678;39.642;22.430;2024-01-30T07:08:02;7.07;55.87
65478;SHT31;53678;39.642;22.430;2024-01-30T07:10:27;6.92;55.52
65478;SHT31;53678;39.642;22.430;2024-01-30T07:12:55;7.29;55.39
65478;SHT31;53678;39.642;22.430;2024-01-30T07:15:21;7.08;55.29
65478;SHT31;53678;39.642;22.430;2024-01-30T07:17:48;7.33;55.43
65478;SHT31;53678;39.642;22.430;2024-01-30T07:20:14;7.49;56.29
65478;SHT31;53678;39.642;22.430;2024-01-30T07:22:41;7.42;54.90
65478;SHT31;53678;39.642;22.430;2024-01-30T07:25:08;6.58;55.49
65478;SHT31;53678;39.642;22.430;2024-01-30T07:27:34;6.97;54.13
65478;SHT31;53678;39.642;22.430;2024-01-30T07:30:01;6.83;55.08
65478;SHT31;53678;39.642;22.430;2024-01-30T07:32:27;6.53;56.50
65478;SHT31;53678;39.642;22.430;2024-01-30T07:34:52;6.63;55.63
65478;SHT31;53678;39.642;22.430;2024-01-30T07:37:19;6.10;56.79
65478;SHT31;53678;39.642;22.430;2024-01-30T07:39:45;6.25;57.08
65478;SHT31;53678;39.642;22.430;2024-01-30T07:42:11;6.19;57.62
65478;SHT31;53678;39.642;22.430;2024-01-30T07:44:36;6.47;57.96
65478;SHT31;53678;39.642;22.430;2024-01-30T07:47:02;6.28;58.05
65478;SHT31;53678;39.642;22.430;2024-01-30T07:49:28;6.63;58.09
65478;SHT31;53678;39.642;22.430;2024-01-30T07:51:54;6.74;57.60
65478;SHT31;53678;39.642;22.430;2024-01-30T07:54:20;6.50;57.71
65478;SHT31;53678;39.642;22.430;2024-01-30T07:56:46;6.39;58.44
65478;SHT31;53678;39.642;22.430;2024-01-30T07:59:12;6.84;57.13
65478;SHT31;53678;39.642;22.430;2024-01-30T08:01:38;6.57;57.16
65478;SHT31;53678;39.642;22.430;2024-01-30T08:04:04;6.51;57.40
65478;SHT31;53678;39.642;22.430;2024-01-30T08:06:30;6.30;56.97
65478;SHT31;53678;39.642;22.430;2024-01-30T08:08:55;6.66;58.64
65478;SHT31;53678;39.642;22.430;2024-01-30T08:11:22;6.36;57.62
65478;SHT31;53678;39.642;22.430;2024-01-30T08:13:53;6.84;57.50
65478;SHT31;53678;39.642;22.430;2024-01-30T08:16:19;6.68;57.98
65478;SHT31;53678;39.642;22.430;2024-01-30T08:18:45;7.29;57.93
65478;SHT31;53678;39.642;22.430;2024-01-30T08:21:11;6.80;56.57
65478;SHT31;53678;39.642;22.430;2024-01-30T08:23:39;7.07;56.20
65478;SHT31;53678;39.642;22.430;2024-01-30T08:26:06;7.02;55.57
65478;SHT31;53678;39.642;22.430;2024-01-30T08:28:32;7.49;55.60
65478;SHT31;53678;39.642;22.430;2024-01-30T08:30:59;6.71;55.10
65478;SHT31;53678;39.642;22.430;2024-01-30T08:33:25;7.08;55.68
65478;SHT31;53678;39.642;22.430;2024-01-30T08:35:51;6.84;55.30
65478;SHT31;53678;39.642;22.430;2024-01-30T08:38:17;7.22;54.73
65478;SHT31;53678;39.642;22.430;2024-01-30T08:40:44;7.42;53.93
65478;SHT31;53678;39.642;22.430;2024-01-30T08:43:11;7.42;54.38
65478;SHT31;53678;39.642;22.430;2024-01-30T08:45:37;7.38;54.17
65478;SHT31;53678;39.642;22.430;2024-01-30T08:48:03;7.57;55.16
65478;SHT31;53678;39.642;22.430;2024-01-30T08:50:29;7.39;54.44
65478;SHT31;53678;39.642;22.430;2024-01-30T08:52:56;8.02;54.14
65478;SHT31;53678;39.642;22.430;2024-01-30T08:55:22;8.04;54.76
65478;SHT31;53678;39.642;22.430;2024-01-30T08:57:49;8.09;55.14
65478;SHT31;53678;39.642;22.430;2024-01-30T09:00:18;7.45;55.84
65478;SHT31;53678;39.642;22.430;2024-01-30T09:02:44;7.26;54.79
65478;SHT31;53678;39.642;22.430;2024-01-30T09:05:10;7.29;54.94
65478;SHT31;53678;39.642;22.430;2024-01-30T09:07:36;7.15;53.68
65478;SHT31;53678;39.642;22.430;2024-01-30T09:10:01;7.14;54.13
65478;SHT31;53678;39.642;22.430;2024-01-30T09:12:29;7.63;54.71
65478;SHT31;53678;39.642;22.430;2024-01-30T09:14:55;8.14;53.55
65478;SHT31;53678;39.642;22.430;2024-01-30T09:17:21;8.31;53.13
65478;SHT31;53678;39.642;22.430;2024-01-30T09:19:47;7.47;53.89
65478;SHT31;53678;39.642;22.430;2024-01-30T09:22:12;7.50;53.13
65478;SHT31;53678;39.642;22.430;2024-01-30T09:24:40;7.73;51.82
65478;SHT31;53678;39.642;22.430;2024-01-30T09:27:06;7.36;52.14
65478;SHT31;53678;39.642;22.430;2024-01-30T09:29:32;7.30;51.37
65478;SHT31;53678;39.642;22.430;2024-01-30T09:32:01;7.26;51.36
65478;SHT31;53678;39.642;22.430;2024-01-30T09:34:27;7.40;52.01
65478;SHT31;53678;39.642;22.430;2024-01-30T09:36:52;7.59;53.52
65478;SHT31;53678;39.642;22.430;2024-01-30T09:39:20;7.59;52.71
65478;SHT31;53678;39.642;22.430;2024-01-30T09:41:56;7.45;52.73
65478;SHT31;53678;39.642;22.430;2024-01-30T09:44:26;7.55;52.23
65478;SHT31;53678;39.642;22.430;2024-01-30T09:46:53;7.28;51.30
65478;SHT31;53678;39.642;22.430;2024-01-30T09:49:20;7.88;51.74
65478;SHT31;53678;39.642;22.430;2024-01-30T09:51:47;7.67;51.36
65478;SHT31;53678;39.642;22.430;2024-01-30T09:54:15;7.66;51.18
65478;SHT31;53678;39.642;22.430;2024-01-30T09:56:43;7.74;50.48
65478;SHT31;53678;39.642;22.430;2024-01-30T09:59:09;7.46;50.99
65478;SHT31;53678;39.642;22.430;2024-01-30T10:01:35;7.55;50.89
65478;SHT31;53678;39.642;22.430;2024-01-30T10:04:07;7.59;51.07
65478;SHT31;53678;39.642;22.430;2024-01-30T10:06:33;7.74;51.18
65478;SHT31;53678;39.642;22.430;2024-01-30T10:09:00;7.80;51.00
65478;SHT31;53678;39.642;22.430;2024-01-30T10:11:26;7.36;52.67
65478;SHT31;53678;39.642;22.430;2024-01-30T10:13:52;7.74;54.19
65478;SHT31;53678;39.642;22.430;2024-01-30T10:16:18;7.90;55.11
65478;SHT31;53678;39.642;22.430;2024-01-30T10:18:44;7.63;54.10
65478;SHT31;53678;39.642;22.430;2024-01-30T10:21:12;7.69;54.69
65478;SHT31;53678;39.642;22.430;2024-01-30T10:23:38;7.87;53.62
65478;SHT31;53678;39.642;22.430;2024-01-30T10:26:04;7.73;53.05
65478;SHT31;53678;39.642;22.430;2024-01-30T10:28:32;7.71;53.50
65478;SHT31;53678;39.642;22.430;2024-01-30T10:31:00;7.77;53.29
65478;SHT31;53678;39.642;22.430;2024-01-30T10:33:27;7.66;52.92
65478;SHT31;53678;39.642;22.430;2024-01-30T10:36:03;7.59;51.95
65478;SHT31;53678;39.642;22.430;2024-01-30T10:38:30;8.14;53.96
65478;SHT31;53678;39.642;22.430;2024-01-30T10:40:57;8.29;53.06
65478;SHT31;53678;39.642;22.430;2024-01-30T10:43:30;8.11;52.66
65478;SHT31;53678;39.642;22.430;2024-01-30T10:45:57;8.25;52.98
65478;SHT31;53678;39.642;22.430;2024-01-30T10:48:31;8.15;52.18
65478;SHT31;53678;39.642;22.430;2024-01-30T10:50:59;8.32;51.94
65478;SHT31;53678;39.642;22.430;2024-01-30T10:53:28;8.02;51.94
65478;SHT31;53678;39.642;22.430;2024-01-30T10:55:55;8.04;51.99
65478;SHT31;53678;39.642;22.430;2024-01-30T10:58:22;8.28;51.36
65478;SHT31;53678;39.642;22.430;2024-01-30T11:00:49;8.09;51.42
65478;SHT31;53678;39.642;22.430;2024-01-30T11:03:18;8.05;51.65
65478;SHT31;53678;39.642;22.430;2024-01-30T11:05:49;8.05;51.76
65478;SHT31;53678;39.642;22.430;2024-01-30T11:08:25;8.07;51.15
65478;SHT31;53678;39.642;22.430;2024-01-30T11:10:59;8.07;51.83
65478;SHT31;53678;39.642;22.430;2024-01-30T11:13:30;8.36;51.08
65478;SHT31;53678;39.642;22.430;2024-01-30T11:16:04;8.44;50.26
65478;SHT31;53678;39.642;22.430;2024-01-30T11:18:31;8.35;51.23
65478;SHT31;53678;39.642;22.430;2024-01-30T11:20:58;8.24;51.08
65478;SHT31;53678;39.642;22.430;2024-01-30T11:23:26;8.56;50.80
65478;SHT31;53678;39.642;22.430;2024-01-30T11:25:53;8.39;48.88
65478;SHT31;53678;39.642;22.430;2024-01-30T11:28:21;8.14;47.05
65478;SHT31;53678;39.642;22.430;2024-01-30T11:30:49;8.26;48.11
65478;SHT31;53678;39.642;22.430;2024-01-30T11:33:29;8.25;47.20
65478;SHT31;53678;39.642;22.430;2024-01-30T11:35:57;8.36;46.75
65478;SHT31;53678;39.642;22.430;2024-01-30T11:38:27;8.28;47.06
65478;SHT31;53678;39.642;22.430;2024-01-30T11:40:54;8.42;47.35
65478;SHT31;53678;39.642;22.430;2024-01-30T11:43:21;8.62;48.44
65478;SHT31;53678;39.642;22.430;2024-01-30T11:45:48;8.45;46.43
65478;SHT31;53678;39.642;22.430;2024-01-30T11:48:14;8.49;48.50
65478;SHT31;53678;39.642;22.430;2024-01-30T11:50:39;8.14;46.90
65478;SHT31;53678;39.642;22.430;2024-01-30T11:53:10;8.34;48.24
65478;SHT31;53678;39.642;22.430;2024-01-30T11:55:36;8.24;47.17
65478;SHT31;53678;39.642;22.430;2024-01-30T11:58:03;8.39;47.04
65478;SHT31;53678;39.642;22.430;2024-01-30T12:00:34;8.12;46.85
65478;SHT31;53678;39.642;22.430;2024-01-30T12:03:01;8.17;47.43
65478;SHT31;53678;39.642;22.430;2024-01-30T12:05:28;7.94;47.41
65478;SHT31;53678;39.642;22.430;2024-01-30T12:07:54;8.18;47.92
65478;SHT31;53678;39.642;22.430;2024-01-30T12:10:21;8.07;48.19
65478;SHT31;53678;39.642;22.430;2024-01-30T12:12:49;8.29;48.91
65478;SHT31;53678;39.642;22.430;2024-01-30T12:15:16;8.25;47.58
65478;SHT31;53678;39.642;22.430;2024-01-30T12:17:42;7.98;47.62
65478;SHT31;53678;39.642;22.430;2024-01-30T12:20:14;8.26;48.77
65478;SHT31;53678;39.642;22.430;2024-01-30T13:38:34;7.88;50.03
65478;SHT31;53678;39.642;22.430;2024-01-30T13:41:00;7.80;49.17
65478;SHT31;53678;39.642;22.430;2024-01-30T13:43:26;7.77;49.38
65478;SHT31;53678;39.642;22.430;2024-01-30T13:45:52;7.70;49.64
65478;SHT31;53678;39.642;22.430;2024-01-30T13:48:18;7.78;49.34
65478;SHT31;53678;39.642;22.430;2024-01-30T13:50:44;7.66;49.26
65478;SHT31;53678;39.642;22.430;2024-01-30T13:53:13;7.80;50.40
65478;SHT31;53678;39.642;22.430;2024-01-30T13:55:40;7.76;50.62
65478;SHT31;53678;39.642;22.430;2024-01-30T13:58:06;7.84;50.50
65478;SHT31;53678;39.642;22.430;2024-01-30T14:00:33;7.86;50.60
65478;SHT31;53678;39.642;22.430;2024-01-30T14:03:00;7.83;51.20
65478;SHT31;53678;39.642;22.430;2024-01-30T14:05:26;7.81;49.89
65478;SHT31;53678;39.642;22.430;2024-01-30T14:07:57;7.78;49.38
65478;SHT31;53678;39.642;22.430;2024-01-30T14:10:23;7.76;49.48
65478;SHT31;53678;39.642;22.430;2024-01-30T14:12:49;7.55;50.07
65478;SHT31;53678;39.642;22.430;2024-01-30T14:15:15;7.60;50.48
65478;SHT31;53678;39.642;22.430;2024-01-30T14:17:43;7.66;49.60
65478;SHT31;53678;39.642;22.430;2024-01-30T14:20:11;7.69;49.99
65478;SHT31;53678;39.642;22.430;2024-01-30T14:22:39;7.74;50.03
65478;SHT31;53678;39.642;22.430;2024-01-30T14:25:07;7.80;50.54
65478;SHT31;53678;39.642;22.430;2024-01-30T14:27:35;7.84;50.64
65478;SHT31;53678;39.642;22.430;2024-01-30T14:30:02;7.97;50.33
65478;SHT31;53678;39.642;22.430;2024-01-30T14:32:28;7.90;49.94
65478;SHT31;53678;39.642;22.430;2024-01-30T14:34:54;7.84;50.27
65478;SHT31;53678;39.642;22.430;2024-01-30T14:37:21;7.78;50.52
65478;SHT31;53678;39.642;22.430;2024-01-30T14:39:48;7.71;50.29
65478;SHT31;53678;39.642;22.430;2024-01-30T14:42:17;7.76;50.27
65478;SHT31;53678;39.642;22.430;2024-01-30T14:44:45;7.87;50.84
65478;SHT31;53678;39.642;22.430;2024-01-30T14:47:11;7.90;49.84
65478;SHT31;53678;39.642;22.430;2024-01-30T14:49:38;7.91;49.78
65478;SHT31;53678;39.642;22.430;2024-01-30T14:52:04;7.74;50.46
65478;SHT31;53678;39.642;22.430;2024-01-30T14:54:30;7.76;50.41
65478;SHT31;53678;39.642;22.430;2024-01-30T14:56:57;7.74;50.67
65478;SHT31;53678;39.642;22.430;2024-01-30T14:59:25;7.63;50.51
65478;SHT31;53678;39.642;22.430;2024-01-30T15:01:52;7.63;50.32
65478;SHT31;53678;39.642;22.430;2024-01-30T15:04:20;7.63;49.94
65478;SHT31;53678;39.642;22.430;2024-01-30T15:06:46;7.65;49.79
65478;SHT31;53678;39.642;22.430;2024-01-30T15:09:14;7.63;50.15
65478;SHT31;53678;39.642;22.430;2024-01-30T15:11:44;7.59;50.32
65478;SHT31;53678;39.642;22.430;2024-01-30T15:14:11;7.53;50.66
65478;SHT31;53678;39.642;22.430;2024-01-30T15:16:37;7.46;50.82
65478;SHT31;53678;39.642;22.430;2024-01-30T15:19:04;7.49;50.81
65478;SHT31;53678;39.642;22.430;2024-01-30T15:21:31;7.42;51.42
65478;SHT31;53678;39.642;22.430;2024-01-30T15:23:58;7.52;51.09
65478;SHT31;53678;39.642;22.430;2024-01-30T15:26:25;7.50;51.41
65478;SHT31;53678;39.642;22.430;2024-01-30T15:28:51;7.38;51.82
65478;SHT31;53678;39.642;22.430;2024-01-30T15:31:17;7.35;52.40
65478;SHT31;53678;39.642;22.430;2024-01-30T15:33:43;7.32;52.57
65478;SHT31;53678;39.642;22.430;2024-01-30T15:36:10;7.32;52.65
65478;SHT31;53678;39.642;22.430;2024-01-30T15:38:38;7.36;51.56
65478;SHT31;53678;39.642;22.430;2024-01-30T15:41:04;7.35;52.11
65478;SHT31;53678;39.642;22.430;2024-01-30T15:43:30;7.20;52.90
65478;SHT31;53678;39.642;22.430;2024-01-30T15:45:58;7.25;52.37
65478;SHT31;53678;39.642;22.430;2024-01-30T15:48:26;7.28;52.32
65478;SHT31;53678;39.642;22.430;2024-01-30T15:50:52;7.16;52.94
65478;SHT31;53678;39.642;22.430;2024-01-30T15:53:22;7.18;52.98
65478;SHT31;53678;39.642;22.430;2024-01-30T15:55:49;7.11;53.21
65478;SHT31;53678;39.642;22.430;2024-01-30T15:58:15;7.04;53.60
65478;SHT31;53678;39.642;22.430;2024-01-30T16:00:41;7.04;53.76
65478;SHT31;53678;39.642;22.430;2024-01-30T16:03:08;7.04;53.43
65478;SHT31;53678;39.642;22.430;2024-01-30T16:05:35;6.97;53.76
65478;SHT31;53678;39.642;22.430;2024-01-30T16:08:02;6.94;54.06
65478;SHT31;53678;39.642;22.430;2024-01-30T16:10:28;6.94;53.99
65478;SHT31;53678;39.642;22.430;2024-01-30T16:12:54;6.92;54.18
65478;SHT31;53678;39.642;22.430;2024-01-30T16:15:22;6.92;54.47
65478;SHT31;53678;39.642;22.430;2024-01-30T16:17:50;6.74;55.07
65478;SHT31;53678;39.642;22.430;2024-01-30T16:20:16;6.63;55.59
65478;SHT31;53678;39.642;22.430;2024-01-30T16:22:41;6.47;55.99
65478;SHT31;53678;39.642;22.430;2024-01-30T16:25:09;6.33;56.78
65478;SHT31;53678;39.642;22.430;2024-01-30T16:27:35;6.32;56.44
65478;SHT31;53678;39.642;22.430;2024-01-30T16:30:02;6.32;56.43
65478;SHT31;53678;39.642;22.430;2024-01-30T16:32:29;6.33;56.25
65478;SHT31;53678;39.642;22.430;2024-01-30T16:35:01;6.37;55.53
65478;SHT31;53678;39.642;22.430;2024-01-30T16:37:33;6.40;55.55
65478;SHT31;53678;39.642;22.430;2024-01-30T16:39:59;6.40;55.50
65478;SHT31;53678;39.642;22.430;2024-01-30T16:42:25;6.37;55.95